sensor_id;sensor_type;location;lat;lon;timestamp;P1;durP1;ratioP1;P2;durP2;ratioP2
18200;SDS011;9226;47.858;9.594;2023-03-22T00:01:11;20.20;;;7.87;;
18200;SDS011;9226;47.858;9.594;2023-03-22T00:03:41;15.83;;;8.10;;
18200;SDS011;9226;47.858;9.594;2023-03-22T00:06:07;14.47;;;7.80;;
18200;SDS011;9226;47.858;9.594;2023-03-22T00:08:33;14.97;;;7.90;;
18200;SDS011;9226;47.858;9.594;2023-03-22T00:10:58;13.90;;;7.40;;
18200;SDS011;9226;47.858;9.594;2023-03-22T00:13:24;13.13;;;7.33;;
18200;SDS011;9226;47.858;9.594;2023-03-22T00:15:50;14.30;;;7.53;;
18200;SDS011;9226;47.858;9.594;2023-03-22T00:18:15;15.40;;;8.23;;
18200;SDS011;9226;47.858;9.594;2023-03-22T00:20:51;11.87;;;7.27;;
18200;SDS011;9226;47.858;9.594;2023-03-22T00:23:18;11.57;;;6.87;;
18200;SDS011;9226;47.858;9.594;2023-03-22T00:25:45;13.63;;;7.07;;
18200;SDS011;9226;47.858;9.594;2023-03-22T00:28:11;12.80;;;6.97;;
18200;SDS011;9226;47.858;9.594;2023-03-22T00:30:37;15.67;;;7.43;;
18200;SDS011;9226;47.858;9.594;2023-03-22T00:33:03;11.10;;;6.80;;
18200;SDS011;9226;47.858;9.594;2023-03-22T00:35:29;12.03;;;7.10;;
18200;SDS011;9226;47.858;9.594;2023-03-22T00:37:54;14.40;;;7.60;;
18200;SDS011;9226;47.858;9.594;2023-03-22T00:40:20;13.30;;;7.20;;
18200;SDS011;9226;47.858;9.594;2023-03-22T00:42:47;13.70;;;7.53;;
18200;SDS011;9226;47.858;9.594;2023-03-22T00:45:13;13.77;;;7.60;;
18200;SDS011;9226;47.858;9.594;2023-03-22T00:47:39;12.67;;;7.57;;
18200;SDS011;9226;47.858;9.594;2023-03-22T00:50:05;17.73;;;7.33;;
18200;SDS011;9226;47.858;9.594;2023-03-22T00:52:30;13.90;;;7.50;;
18200;SDS011;9226;47.858;9.594;2023-03-22T00:54:56;19.93;;;8.60;;
18200;SDS011;9226;47.858;9.594;2023-03-22T00:57:23;14.07;;;8.33;;
18200;SDS011;9226;47.858;9.594;2023-03-22T00:59:48;15.90;;;7.73;;
18200;SDS011;9226;47.858;9.594;2023-03-22T01:02:14;16.27;;;7.87;;
18200;SDS011;9226;47.858;9.594;2023-03-22T01:04:40;13.80;;;7.77;;
18200;SDS011;9226;47.858;9.594;2023-03-22T01:07:15;14.73;;;7.73;;
18200;SDS011;9226;47.858;9.594;2023-03-22T01:09:44;13.03;;;7.37;;
18200;SDS011;9226;47.858;9.594;2023-03-22T01:12:10;14.57;;;7.40;;
18200;SDS011;9226;47.858;9.594;2023-03-22T01:14:36;11.37;;;7.30;;
18200;SDS011;9226;47.858;9.594;2023-03-22T01:17:01;12.50;;;7.40;;
18200;SDS011;9226;47.858;9.594;2023-03-22T01:19:27;12.63;;;6.97;;
18200;SDS011;9226;47.858;9.594;2023-03-22T01:21:52;17.90;;;8.00;;
18200;SDS011;9226;47.858;9.594;2023-03-22T01:24:18;17.07;;;8.53;;
18200;SDS011;9226;47.858;9.594;2023-03-22T01:26:44;17.37;;;8.80;;
18200;SDS011;9226;47.858;9.594;2023-03-22T01:29:10;17.07;;;8.90;;
18200;SDS011;9226;47.858;9.594;2023-03-22T01:31:35;16.77;;;8.23;;
18200;SDS011;9226;47.858;9.594;2023-03-22T01:34:00;15.17;;;7.97;;
18200;SDS011;9226;47.858;9.594;2023-03-22T01:36:26;15.57;;;8.00;;
18200;SDS011;9226;47.858;9.594;2023-03-22T01:38:51;14.80;;;7.00;;
18200;SDS011;9226;47.858;9.594;2023-03-22T01:41:17;14.67;;;6.60;;
18200;SDS011;9226;47.858;9.594;2023-03-22T01:43:42;14.43;;;6.70;;
18200;SDS011;9226;47.858;9.594;2023-03-22T01:46:08;16.30;;;7.20;;
18200;SDS011;9226;47.858;9.594;2023-03-22T01:53:31;12.67;;;6.70;;
18200;SDS011;9226;47.858;9.594;2023-03-22T01:56:01;11.87;;;6.73;;
18200;SDS011;9226;47.858;9.594;2023-03-22T01:58:27;10.70;;;5.93;;
18200;SDS011;9226;47.858;9.594;2023-03-22T02:00:53;13.17;;;7.07;;
18200;SDS011;9226;47.858;9.594;2023-03-22T02:03:24;13.17;;;6.87;;
18200;SDS011;9226;47.858;9.594;2023-03-22T02:05:54;12.90;;;7.00;;
18200;SDS011;9226;47.858;9.594;2023-03-22T02:08:20;15.90;;;8.10;;
18200;SDS011;9226;47.858;9.594;2023-03-22T02:10:46;14.37;;;8.57;;
18200;SDS011;9226;47.858;9.594;2023-03-22T02:24:34;17.20;;;7.40;;
18200;SDS011;9226;47.858;9.594;2023-03-22T02:44:23;19.10;;;9.67;;
18200;SDS011;9226;47.858;9.594;2023-03-22T02:49:38;20.53;;;9.60;;
18200;SDS011;9226;47.858;9.594;2023-03-22T02:54:54;14.00;;;8.07;;
18200;SDS011;9226;47.858;9.594;2023-03-22T03:00:05;13.40;;;7.50;;
18200;SDS011;9226;47.858;9.594;2023-03-22T03:02:35;14.17;;;7.40;;
18200;SDS011;9226;47.858;9.594;2023-03-22T03:05:04;16.83;;;8.07;;
18200;SDS011;9226;47.858;9.594;2023-03-22T03:07:32;13.97;;;8.07;;
18200;SDS011;9226;47.858;9.594;2023-03-22T03:09:58;18.27;;;9.07;;
18200;SDS011;9226;47.858;9.594;2023-03-22T03:12:25;15.03;;;8.67;;
18200;SDS011;9226;47.858;9.594;2023-03-22T03:14:52;16.63;;;8.90;;
18200;SDS011;9226;47.858;9.594;2023-03-22T03:25:17;17.07;;;7.30;;
18200;SDS011;9226;47.858;9.594;2023-03-22T03:28:07;13.40;;;6.67;;
18200;SDS011;9226;47.858;9.594;2023-03-22T03:30:38;14.03;;;6.90;;
18200;SDS011;9226;47.858;9.594;2023-03-22T03:33:11;14.30;;;7.20;;
18200;SDS011;9226;47.858;9.594;2023-03-22T03:35:46;14.07;;;7.00;;
18200;SDS011;9226;47.858;9.594;2023-03-22T03:38:16;12.97;;;7.50;;
18200;SDS011;9226;47.858;9.594;2023-03-22T03:40:49;12.27;;;7.07;;
18200;SDS011;9226;47.858;9.594;2023-03-22T03:43:18;17.37;;;7.23;;
18200;SDS011;9226;47.858;9.594;2023-03-22T03:45:44;15.80;;;7.73;;
18200;SDS011;9226;47.858;9.594;2023-03-22T03:48:13;13.40;;;7.50;;
18200;SDS011;9226;47.858;9.594;2023-03-22T03:50:44;11.33;;;6.97;;
18200;SDS011;9226;47.858;9.594;2023-03-22T03:53:11;18.20;;;7.97;;
18200;SDS011;9226;47.858;9.594;2023-03-22T03:55:36;11.80;;;6.90;;
18200;SDS011;9226;47.858;9.594;2023-03-22T03:58:02;14.67;;;7.37;;
18200;SDS011;9226;47.858;9.594;2023-03-22T04:00:27;14.70;;;7.13;;
18200;SDS011;9226;47.858;9.594;2023-03-22T04:02:53;28.13;;;6.97;;
18200;SDS011;9226;47.858;9.594;2023-03-22T04:05:18;15.03;;;7.57;;
18200;SDS011;9226;47.858;9.594;2023-03-22T04:07:44;12.00;;;7.20;;
18200;SDS011;9226;47.858;9.594;2023-03-22T04:10:09;14.10;;;7.83;;
18200;SDS011;9226;47.858;9.594;2023-03-22T04:12:35;21.47;;;8.37;;
18200;SDS011;9226;47.858;9.594;2023-03-22T04:15:00;15.90;;;8.00;;
18200;SDS011;9226;47.858;9.594;2023-03-22T04:17:25;12.70;;;7.90;;
18200;SDS011;9226;47.858;9.594;2023-03-22T04:19:53;12.60;;;7.70;;
18200;SDS011;9226;47.858;9.594;2023-03-22T04:22:24;16.10;;;7.57;;
18200;SDS011;9226;47.858;9.594;2023-03-22T04:24:50;17.13;;;8.03;;
18200;SDS011;9226;47.858;9.594;2023-03-22T04:27:16;28.40;;;7.83;;
18200;SDS011;9226;47.858;9.594;2023-03-22T04:29:41;13.47;;;7.90;;
18200;SDS011;9226;47.858;9.594;2023-03-22T04:32:12;14.67;;;8.17;;
18200;SDS011;9226;47.858;9.594;2023-03-22T04:34:47;15.90;;;8.40;;
18200;SDS011;9226;47.858;9.594;2023-03-22T04:37:13;15.23;;;8.50;;
18200;SDS011;9226;47.858;9.594;2023-03-22T04:39:39;16.80;;;8.30;;
18200;SDS011;9226;47.858;9.594;2023-03-22T04:42:05;15.50;;;9.03;;
18200;SDS011;9226;47.858;9.594;2023-03-22T04:44:30;16.80;;;8.90;;
18200;SDS011;9226;47.858;9.594;2023-03-22T04:46:56;17.87;;;8.43;;
18200;SDS011;9226;47.858;9.594;2023-03-22T04:49:21;14.53;;;8.37;;
18200;SDS011;9226;47.858;9.594;2023-03-22T04:51:47;14.13;;;7.60;;
18200;SDS011;9226;47.858;9.594;2023-03-22T04:54:12;13.77;;;8.00;;
18200;SDS011;9226;47.858;9.594;2023-03-22T04:56:38;14.77;;;8.20;;
18200;SDS011;9226;47.858;9.594;2023-03-22T04:59:03;14.33;;;7.23;;
18200;SDS011;9226;47.858;9.594;2023-03-22T05:01:29;15.03;;;7.33;;
18200;SDS011;9226;47.858;9.594;2023-03-22T05:03:54;14.83;;;6.90;;
18200;SDS011;9226;47.858;9.594;2023-03-22T05:06:20;15.97;;;7.43;;
18200;SDS011;9226;47.858;9.594;2023-03-22T05:08:45;16.17;;;7.47;;
18200;SDS011;9226;47.858;9.594;2023-03-22T05:11:12;15.80;;;7.20;;
18200;SDS011;9226;47.858;9.594;2023-03-22T05:13:40;14.30;;;7.43;;
18200;SDS011;9226;47.858;9.594;2023-03-22T05:16:06;13.80;;;7.13;;
18200;SDS011;9226;47.858;9.594;2023-03-22T05:18:33;11.57;;;6.93;;
18200;SDS011;9226;47.858;9.594;2023-03-22T05:21:02;13.50;;;6.80;;
18200;SDS011;9226;47.858;9.594;2023-03-22T05:23:27;15.97;;;7.80;;
18200;SDS011;9226;47.858;9.594;2023-03-22T05:25:53;13.33;;;7.00;;
18200;SDS011;9226;47.858;9.594;2023-03-22T05:28:22;12.00;;;6.60;;
18200;SDS011;9226;47.858;9.594;2023-03-22T05:30:48;15.20;;;7.67;;
18200;SDS011;9226;47.858;9.594;2023-03-22T05:33:14;10.77;;;6.67;;
18200;SDS011;9226;47.858;9.594;2023-03-22T05:35:41;16.40;;;7.03;;
18200;SDS011;9226;47.858;9.594;2023-03-22T05:38:07;10.57;;;6.13;;
18200;SDS011;9226;47.858;9.594;2023-03-22T05:40:33;12.27;;;6.00;;
18200;SDS011;9226;47.858;9.594;2023-03-22T05:42:58;17.10;;;6.43;;
18200;SDS011;9226;47.858;9.594;2023-03-22T05:45:24;13.13;;;6.03;;
18200;SDS011;9226;47.858;9.594;2023-03-22T05:47:50;11.07;;;6.30;;
18200;SDS011;9226;47.858;9.594;2023-03-22T05:50:17;11.00;;;5.80;;
18200;SDS011;9226;47.858;9.594;2023-03-22T05:52:45;8.90;;;5.60;;
18200;SDS011;9226;47.858;9.594;2023-03-22T05:55:11;10.10;;;5.67;;
18200;SDS011;9226;47.858;9.594;2023-03-22T05:57:39;11.93;;;5.90;;
18200;SDS011;9226;47.858;9.594;2023-03-22T06:00:06;11.20;;;5.97;;
18200;SDS011;9226;47.858;9.594;2023-03-22T06:02:37;10.97;;;5.50;;
18200;SDS011;9226;47.858;9.594;2023-03-22T06:05:03;15.23;;;5.57;;
18200;SDS011;9226;47.858;9.594;2023-03-22T06:07:29;8.47;;;5.43;;
18200;SDS011;9226;47.858;9.594;2023-03-22T06:09:54;8.83;;;5.33;;
18200;SDS011;9226;47.858;9.594;2023-03-22T06:12:20;10.43;;;5.43;;
18200;SDS011;9226;47.858;9.594;2023-03-22T06:14:48;10.67;;;5.67;;
18200;SDS011;9226;47.858;9.594;2023-03-22T06:17:14;14.83;;;5.60;;
18200;SDS011;9226;47.858;9.594;2023-03-22T06:19:40;10.40;;;5.57;;
18200;SDS011;9226;47.858;9.594;2023-03-22T06:22:05;8.70;;;5.03;;
18200;SDS011;9226;47.858;9.594;2023-03-22T06:24:30;9.30;;;4.90;;
18200;SDS011;9226;47.858;9.594;2023-03-22T06:26:56;9.03;;;4.90;;
18200;SDS011;9226;47.858;9.594;2023-03-22T06:29:21;9.93;;;5.57;;
18200;SDS011;9226;47.858;9.594;2023-03-22T06:31:47;8.77;;;5.50;;
18200;SDS011;9226;47.858;9.594;2023-03-22T06:34:12;7.17;;;4.90;;
18200;SDS011;9226;47.858;9.594;2023-03-22T06:36:37;7.83;;;4.87;;
18200;SDS011;9226;47.858;9.594;2023-03-22T06:39:03;9.63;;;5.00;;
18200;SDS011;9226;47.858;9.594;2023-03-22T06:41:29;8.30;;;5.03;;
18200;SDS011;9226;47.858;9.594;2023-03-22T06:43:55;10.17;;;5.00;;
18200;SDS011;9226;47.858;9.594;2023-03-22T06:46:20;8.70;;;5.40;;
18200;SDS011;9226;47.858;9.594;2023-03-22T06:48:46;8.43;;;4.83;;
18200;SDS011;9226;47.858;9.594;2023-03-22T06:51:11;9.83;;;5.13;;
18200;SDS011;9226;47.858;9.594;2023-03-22T06:53:36;10.00;;;4.80;;
18200;SDS011;9226;47.858;9.594;2023-03-22T06:56:02;8.03;;;5.13;;
18200;SDS011;9226;47.858;9.594;2023-03-22T06:58:27;12.43;;;5.30;;
18200;SDS011;9226;47.858;9.594;2023-03-22T07:00:55;10.07;;;5.10;;
18200;SDS011;9226;47.858;9.594;2023-03-22T07:03:21;8.50;;;5.00;;
18200;SDS011;9226;47.858;9.594;2023-03-22T07:05:47;11.87;;;5.60;;
18200;SDS011;9226;47.858;9.594;2023-03-22T07:08:12;6.97;;;5.07;;
18200;SDS011;9226;47.858;9.594;2023-03-22T07:10:37;8.30;;;5.17;;
18200;SDS011;9226;47.858;9.594;2023-03-22T07:13:05;7.87;;;5.53;;
18200;SDS011;9226;47.858;9.594;2023-03-22T07:15:30;15.37;;;5.77;;
18200;SDS011;9226;47.858;9.594;2023-03-22T07:17:58;10.33;;;5.33;;
18200;SDS011;9226;47.858;9.594;2023-03-22T07:20:23;8.50;;;5.30;;
18200;SDS011;9226;47.858;9.594;2023-03-22T07:22:49;10.60;;;5.13;;
18200;SDS011;9226;47.858;9.594;2023-03-22T07:25:15;9.40;;;5.10;;
18200;SDS011;9226;47.858;9.594;2023-03-22T07:27:40;9.83;;;5.77;;
18200;SDS011;9226;47.858;9.594;2023-03-22T07:30:06;8.63;;;5.47;;
18200;SDS011;9226;47.858;9.594;2023-03-22T07:32:32;6.93;;;5.17;;
18200;SDS011;9226;47.858;9.594;2023-03-22T07:34:57;8.07;;;4.97;;
18200;SDS011;9226;47.858;9.594;2023-03-22T07:37:23;8.90;;;5.57;;
18200;SDS011;9226;47.858;9.594;2023-03-22T07:39:48;8.77;;;4.77;;
18200;SDS011;9226;47.858;9.594;2023-03-22T07:42:14;7.67;;;4.80;;
18200;SDS011;9226;47.858;9.594;2023-03-22T07:44:39;6.87;;;4.53;;
18200;SDS011;9226;47.858;9.594;2023-03-22T07:47:05;7.97;;;4.47;;
18200;SDS011;9226;47.858;9.594;2023-03-22T07:49:30;8.37;;;4.70;;
18200;SDS011;9226;47.858;9.594;2023-03-22T07:51:56;7.37;;;4.40;;
18200;SDS011;9226;47.858;9.594;2023-03-22T07:54:21;8.03;;;4.83;;
18200;SDS011;9226;47.858;9.594;2023-03-22T07:56:47;9.63;;;4.95;;
18200;SDS011;9226;47.858;9.594;2023-03-22T07:59:13;6.85;;;5.13;;
18200;SDS011;9226;47.858;9.594;2023-03-22T08:01:40;8.13;;;4.90;;
18200;SDS011;9226;47.858;9.594;2023-03-22T08:04:06;7.18;;;5.35;;
18200;SDS011;9226;47.858;9.594;2023-03-22T08:06:31;7.00;;;5.15;;
18200;SDS011;9226;47.858;9.594;2023-03-22T08:08:57;10.50;;;5.20;;
18200;SDS011;9226;47.858;9.594;2023-03-22T08:11:23;8.63;;;5.40;;
18200;SDS011;9226;47.858;9.594;2023-03-22T08:13:48;6.47;;;4.72;;
18200;SDS011;9226;47.858;9.594;2023-03-22T08:16:14;6.75;;;4.90;;
18200;SDS011;9226;47.858;9.594;2023-03-22T08:18:40;6.78;;;4.80;;
18200;SDS011;9226;47.858;9.594;2023-03-22T08:21:05;7.60;;;4.15;;
18200;SDS011;9226;47.858;9.594;2023-03-22T08:23:31;6.63;;;3.95;;
18200;SDS011;9226;47.858;9.594;2023-03-22T08:25:57;5.72;;;4.25;;
18200;SDS011;9226;47.858;9.594;2023-03-22T08:28:22;8.15;;;4.22;;
18200;SDS011;9226;47.858;9.594;2023-03-22T08:30:48;6.85;;;4.22;;
18200;SDS011;9226;47.858;9.594;2023-03-22T08:33:13;7.43;;;4.28;;
18200;SDS011;9226;47.858;9.594;2023-03-22T08:35:40;6.13;;;4.32;;
18200;SDS011;9226;47.858;9.594;2023-03-22T08:38:06;7.40;;;4.40;;
18200;SDS011;9226;47.858;9.594;2023-03-22T08:40:31;4.68;;;4.03;;
18200;SDS011;9226;47.858;9.594;2023-03-22T08:42:57;6.95;;;4.55;;
18200;SDS011;9226;47.858;9.594;2023-03-22T08:45:22;4.95;;;4.00;;
18200;SDS011;9226;47.858;9.594;2023-03-22T08:47:48;6.18;;;4.05;;
18200;SDS011;9226;47.858;9.594;2023-03-22T08:50:14;5.07;;;3.75;;
18200;SDS011;9226;47.858;9.594;2023-03-22T08:52:40;5.18;;;3.63;;
18200;SDS011;9226;47.858;9.594;2023-03-22T08:55:06;5.35;;;4.00;;
18200;SDS011;9226;47.858;9.594;2023-03-22T08:57:32;5.78;;;3.85;;
18200;SDS011;9226;47.858;9.594;2023-03-22T08:59:58;6.10;;;3.50;;
18200;SDS011;9226;47.858;9.594;2023-03-22T09:02:24;6.40;;;3.45;;
18200;SDS011;9226;47.858;9.594;2023-03-22T09:04:50;6.03;;;4.10;;
18200;SDS011;9226;47.858;9.594;2023-03-22T09:07:16;5.47;;;3.80;;
18200;SDS011;9226;47.858;9.594;2023-03-22T09:09:44;5.55;;;3.88;;
18200;SDS011;9226;47.858;9.594;2023-03-22T09:12:10;5.00;;;3.53;;
18200;SDS011;9226;47.858;9.594;2023-03-22T09:14:35;9.13;;;3.70;;
18200;SDS011;9226;47.858;9.594;2023-03-22T09:17:00;5.25;;;3.63;;
18200;SDS011;9226;47.858;9.594;2023-03-22T09:19:26;7.40;;;3.70;;
18200;SDS011;9226;47.858;9.594;2023-03-22T09:21:52;7.88;;;3.88;;
18200;SDS011;9226;47.858;9.594;2023-03-22T09:24:17;4.57;;;3.67;;
18200;SDS011;9226;47.858;9.594;2023-03-22T09:26:44;5.65;;;3.95;;
18200;SDS011;9226;47.858;9.594;2023-03-22T09:29:10;6.93;;;3.92;;
18200;SDS011;9226;47.858;9.594;2023-03-22T09:31:35;6.18;;;3.80;;
18200;SDS011;9226;47.858;9.594;2023-03-22T09:34:00;5.38;;;3.55;;
18200;SDS011;9226;47.858;9.594;2023-03-22T09:36:26;6.15;;;3.70;;
18200;SDS011;9226;47.858;9.594;2023-03-22T09:38:51;7.47;;;4.18;;
18200;SDS011;9226;47.858;9.594;2023-03-22T09:41:21;7.32;;;4.32;;
18200;SDS011;9226;47.858;9.594;2023-03-22T09:43:58;8.15;;;4.30;;
18200;SDS011;9226;47.858;9.594;2023-03-22T09:46:38;6.72;;;4.13;;
18200;SDS011;9226;47.858;9.594;2023-03-22T09:49:18;7.78;;;3.92;;
18200;SDS011;9226;47.858;9.594;2023-03-22T09:51:48;5.53;;;4.00;;
18200;SDS011;9226;47.858;9.594;2023-03-22T09:54:16;9.45;;;4.13;;
18200;SDS011;9226;47.858;9.594;2023-03-22T09:56:50;6.35;;;3.97;;
18200;SDS011;9226;47.858;9.594;2023-03-22T09:59:37;6.95;;;4.00;;
18200;SDS011;9226;47.858;9.594;2023-03-22T10:02:17;7.28;;;3.85;;
18200;SDS011;9226;47.858;9.594;2023-03-22T10:10:22;6.50;;;3.60;;
18200;SDS011;9226;47.858;9.594;2023-03-22T10:15:53;4.40;;;2.97;;
18200;SDS011;9226;47.858;9.594;2023-03-22T10:18:29;5.20;;;3.15;;
18200;SDS011;9226;47.858;9.594;2023-03-22T10:21:10;7.00;;;3.00;;
18200;SDS011;9226;47.858;9.594;2023-03-22T10:26:07;3.45;;;2.72;;
18200;SDS011;9226;47.858;9.594;2023-03-22T10:28:57;5.32;;;2.97;;
18200;SDS011;9226;47.858;9.594;2023-03-22T10:31:27;5.60;;;3.00;;
18200;SDS011;9226;47.858;9.594;2023-03-22T10:33:57;4.70;;;2.63;;
18200;SDS011;9226;47.858;9.594;2023-03-22T10:36:27;4.15;;;2.83;;
18200;SDS011;9226;47.858;9.594;2023-03-22T10:39:04;3.50;;;2.97;;
18200;SDS011;9226;47.858;9.594;2023-03-22T10:41:40;7.45;;;3.42;;
18200;SDS011;9226;47.858;9.594;2023-03-22T10:44:06;4.70;;;3.20;;
18200;SDS011;9226;47.858;9.594;2023-03-22T10:46:35;6.97;;;3.22;;
18200;SDS011;9226;47.858;9.594;2023-03-22T10:49:03;5.07;;;2.60;;
18200;SDS011;9226;47.858;9.594;2023-03-22T10:51:36;3.60;;;2.75;;
18200;SDS011;9226;47.858;9.594;2023-03-22T10:54:04;3.42;;;2.65;;
18200;SDS011;9226;47.858;9.594;2023-03-22T10:56:36;3.38;;;2.55;;
18200;SDS011;9226;47.858;9.594;2023-03-22T10:59:01;4.05;;;2.63;;
18200;SDS011;9226;47.858;9.594;2023-03-22T11:01:30;19.83;;;3.25;;
18200;SDS011;9226;47.858;9.594;2023-03-22T11:03:59;4.03;;;2.65;;
18200;SDS011;9226;47.858;9.594;2023-03-22T11:06:32;4.95;;;2.70;;
18200;SDS011;9226;47.858;9.594;2023-03-22T11:11:45;4.00;;;2.03;;
18200;SDS011;9226;47.858;9.594;2023-03-22T11:14:15;5.82;;;2.60;;
18200;SDS011;9226;47.858;9.594;2023-03-22T11:19:34;3.38;;;2.30;;
18200;SDS011;9226;47.858;9.594;2023-03-22T11:22:06;3.85;;;2.53;;
18200;SDS011;9226;47.858;9.594;2023-03-22T11:24:58;2.92;;;1.95;;
18200;SDS011;9226;47.858;9.594;2023-03-22T11:27:31;4.32;;;2.38;;
18200;SDS011;9226;47.858;9.594;2023-03-22T11:30:19;4.93;;;2.58;;
18200;SDS011;9226;47.858;9.594;2023-03-22T11:32:47;3.10;;;2.20;;
18200;SDS011;9226;47.858;9.594;2023-03-22T11:35:14;3.15;;;2.20;;
18200;SDS011;9226;47.858;9.594;2023-03-22T11:37:51;2.88;;;2.08;;
18200;SDS011;9226;47.858;9.594;2023-03-22T11:42:48;8.68;;;2.20;;
18200;SDS011;9226;47.858;9.594;2023-03-22T11:45:26;3.43;;;2.00;;
18200;SDS011;9226;47.858;9.594;2023-03-22T11:48:01;3.75;;;2.28;;
18200;SDS011;9226;47.858;9.594;2023-03-22T11:50:31;3.77;;;2.50;;
18200;SDS011;9226;47.858;9.594;2023-03-22T11:53:01;2.67;;;1.90;;
18200;SDS011;9226;47.858;9.594;2023-03-22T11:55:28;2.58;;;1.90;;
18200;SDS011;9226;47.858;9.594;2023-03-22T11:57:56;5.40;;;2.40;;
18200;SDS011;9226;47.858;9.594;2023-03-22T12:00:25;3.30;;;1.87;;
18200;SDS011;9226;47.858;9.594;2023-03-22T12:02:54;5.23;;;2.20;;
18200;SDS011;9226;47.858;9.594;2023-03-22T12:05:28;4.90;;;2.43;;
18200;SDS011;9226;47.858;9.594;2023-03-22T12:07:58;3.33;;;2.30;;
18200;SDS011;9226;47.858;9.594;2023-03-22T12:10:36;3.60;;;2.40;;
18200;SDS011;9226;47.858;9.594;2023-03-22T12:13:22;3.40;;;2.20;;
18200;SDS011;9226;47.858;9.594;2023-03-22T12:15:53;3.77;;;2.20;;
18200;SDS011;9226;47.858;9.594;2023-03-22T12:18:29;5.53;;;2.00;;
18200;SDS011;9226;47.858;9.594;2023-03-22T12:21:04;3.40;;;2.30;;
18200;SDS011;9226;47.858;9.594;2023-03-22T12:23:31;3.57;;;2.30;;
18200;SDS011;9226;47.858;9.594;2023-03-22T12:31:22;4.80;;;1.80;;
18200;SDS011;9226;47.858;9.594;2023-03-22T12:33:55;3.23;;;2.20;;
18200;SDS011;9226;47.858;9.594;2023-03-22T12:36:40;2.83;;;2.30;;
18200;SDS011;9226;47.858;9.594;2023-03-22T12:42:19;3.60;;;2.40;;
18200;SDS011;9226;47.858;9.594;2023-03-22T12:45:17;3.10;;;2.10;;
18200;SDS011;9226;47.858;9.594;2023-03-22T12:47:48;2.37;;;2.03;;
18200;SDS011;9226;47.858;9.594;2023-03-22T12:50:19;4.20;;;2.20;;
18200;SDS011;9226;47.858;9.594;2023-03-22T12:52:51;3.07;;;2.20;;
18200;SDS011;9226;47.858;9.594;2023-03-22T12:55:25;5.47;;;2.23;;
18200;SDS011;9226;47.858;9.594;2023-03-22T12:57:52;4.37;;;1.97;;
18200;SDS011;9226;47.858;9.594;2023-03-22T13:00:28;3.83;;;2.00;;
18200;SDS011;9226;47.858;9.594;2023-03-22T13:02:58;3.70;;;2.27;;
18200;SDS011;9226;47.858;9.594;2023-03-22T13:05:31;5.87;;;2.17;;
18200;SDS011;9226;47.858;9.594;2023-03-22T13:07:57;2.90;;;2.23;;
18200;SDS011;9226;47.858;9.594;2023-03-22T13:15:39;3.97;;;2.10;;
18200;SDS011;9226;47.858;9.594;2023-03-22T13:24:00;4.40;;;2.43;;
18200;SDS011;9226;47.858;9.594;2023-03-22T13:26:50;5.43;;;1.90;;
18200;SDS011;9226;47.858;9.594;2023-03-22T13:29:21;3.07;;;1.87;;
18200;SDS011;9226;47.858;9.594;2023-03-22T13:34:29;4.40;;;1.80;;
18200;SDS011;9226;47.858;9.594;2023-03-22T13:37:06;3.50;;;1.90;;
18200;SDS011;9226;47.858;9.594;2023-03-22T13:39:35;3.30;;;2.00;;
18200;SDS011;9226;47.858;9.594;2023-03-22T13:42:19;2.43;;;1.80;;
18200;SDS011;9226;47.858;9.594;2023-03-22T13:44:53;2.67;;;2.00;;
18200;SDS011;9226;47.858;9.594;2023-03-22T13:49:59;2.17;;;1.60;;
18200;SDS011;9226;47.858;9.594;2023-03-22T13:52:29;3.97;;;1.83;;
18200;SDS011;9226;47.858;9.594;2023-03-22T13:55:00;3.20;;;1.80;;
18200;SDS011;9226;47.858;9.594;2023-03-22T14:00:42;1.93;;;1.40;;
18200;SDS011;9226;47.858;9.594;2023-03-22T14:03:13;2.73;;;1.80;;
18200;SDS011;9226;47.858;9.594;2023-03-22T14:05:44;4.60;;;1.50;;
18200;SDS011;9226;47.858;9.594;2023-03-22T14:08:19;3.67;;;1.60;;
18200;SDS011;9226;47.858;9.594;2023-03-22T14:10:57;2.97;;;1.80;;
18200;SDS011;9226;47.858;9.594;2023-03-22T14:16:10;2.93;;;1.40;;
18200;SDS011;9226;47.858;9.594;2023-03-22T14:18:40;2.43;;;1.30;;
18200;SDS011;9226;47.858;9.594;2023-03-22T14:21:11;2.23;;;1.57;;
18200;SDS011;9226;47.858;9.594;2023-03-22T14:23:50;2.40;;;1.20;;
18200;SDS011;9226;47.858;9.594;2023-03-22T14:26:21;1.60;;;1.20;;
18200;SDS011;9226;47.858;9.594;2023-03-22T14:28:50;2.40;;;1.33;;
18200;SDS011;9226;47.858;9.594;2023-03-22T14:31:25;1.93;;;1.27;;
18200;SDS011;9226;47.858;9.594;2023-03-22T14:33:53;4.17;;;1.20;;
18200;SDS011;9226;47.858;9.594;2023-03-22T14:36:20;1.57;;;1.10;;
18200;SDS011;9226;47.858;9.594;2023-03-22T14:38:47;1.37;;;1.20;;
18200;SDS011;9226;47.858;9.594;2023-03-22T14:41:22;1.60;;;1.27;;
18200;SDS011;9226;47.858;9.594;2023-03-22T14:43:55;3.97;;;1.10;;
18200;SDS011;9226;47.858;9.594;2023-03-22T14:46:24;1.70;;;1.30;;
18200;SDS011;9226;47.858;9.594;2023-03-22T14:48:59;2.13;;;1.03;;
18200;SDS011;9226;47.858;9.594;2023-03-22T14:51:32;1.63;;;1.30;;
18200;SDS011;9226;47.858;9.594;2023-03-22T14:54:08;1.83;;;1.10;;
18200;SDS011;9226;47.858;9.594;2023-03-22T14:56:40;1.67;;;1.10;;
18200;SDS011;9226;47.858;9.594;2023-03-22T14:59:14;2.03;;;1.20;;
18200;SDS011;9226;47.858;9.594;2023-03-22T15:01:46;2.83;;;1.30;;
18200;SDS011;9226;47.858;9.594;2023-03-22T15:04:15;2.47;;;1.10;;
18200;SDS011;9226;47.858;9.594;2023-03-22T15:06:42;1.07;;;0.97;;
18200;SDS011;9226;47.858;9.594;2023-03-22T15:09:11;1.30;;;1.07;;
18200;SDS011;9226;47.858;9.594;2023-03-22T15:11:38;5.10;;;1.00;;
18200;SDS011;9226;47.858;9.594;2023-03-22T15:14:05;3.33;;;1.30;;
18200;SDS011;9226;47.858;9.594;2023-03-22T15:16:33;2.40;;;1.10;;
18200;SDS011;9226;47.858;9.594;2023-03-22T15:19:00;1.23;;;1.03;;
18200;SDS011;9226;47.858;9.594;2023-03-22T15:21:28;1.60;;;1.20;;
18200;SDS011;9226;47.858;9.594;2023-03-22T15:23:55;1.33;;;1.07;;
18200;SDS011;9226;47.858;9.594;2023-03-22T15:26:37;2.13;;;1.10;;
18200;SDS011;9226;47.858;9.594;2023-03-22T15:29:04;2.67;;;1.03;;
18200;SDS011;9226;47.858;9.594;2023-03-22T15:31:53;1.20;;;1.00;;
18200;SDS011;9226;47.858;9.594;2023-03-22T15:34:23;1.47;;;1.00;;
18200;SDS011;9226;47.858;9.594;2023-03-22T15:36:50;1.60;;;1.13;;
18200;SDS011;9226;47.858;9.594;2023-03-22T15:39:19;1.17;;;1.07;;
18200;SDS011;9226;47.858;9.594;2023-03-22T15:41:56;2.07;;;1.00;;
18200;SDS011;9226;47.858;9.594;2023-03-22T15:44:36;1.97;;;1.00;;
18200;SDS011;9226;47.858;9.594;2023-03-22T15:49:35;0.70;;;0.70;;
18200;SDS011;9226;47.858;9.594;2023-03-22T15:54:40;2.00;;;1.10;;
18200;SDS011;9226;47.858;9.594;2023-03-22T15:57:17;2.63;;;1.07;;
18200;SDS011;9226;47.858;9.594;2023-03-22T16:02:30;1.30;;;0.90;;
18200;SDS011;9226;47.858;9.594;2023-03-22T16:04:57;3.90;;;1.00;;
18200;SDS011;9226;47.858;9.594;2023-03-22T16:07:25;2.10;;;1.00;;
18200;SDS011;9226;47.858;9.594;2023-03-22T16:09:52;2.30;;;1.00;;
18200;SDS011;9226;47.858;9.594;2023-03-22T16:12:18;1.27;;;1.17;;
18200;SDS011;9226;47.858;9.594;2023-03-22T16:14:44;1.00;;;0.90;;
18200;SDS011;9226;47.858;9.594;2023-03-22T16:17:17;3.80;;;0.97;;
18200;SDS011;9226;47.858;9.594;2023-03-22T16:19:45;3.57;;;1.13;;
18200;SDS011;9226;47.858;9.594;2023-03-22T16:22:11;1.20;;;1.07;;
18200;SDS011;9226;47.858;9.594;2023-03-22T16:24:39;1.20;;;1.00;;
18200;SDS011;9226;47.858;9.594;2023-03-22T16:27:13;2.33;;;1.10;;
18200;SDS011;9226;47.858;9.594;2023-03-22T16:29:41;1.40;;;1.00;;
18200;SDS011;9226;47.858;9.594;2023-03-22T16:32:14;1.50;;;1.03;;
18200;SDS011;9226;47.858;9.594;2023-03-22T16:34:44;1.27;;;1.00;;
18200;SDS011;9226;47.858;9.594;2023-03-22T16:37:14;1.00;;;0.90;;
18200;SDS011;9226;47.858;9.594;2023-03-22T16:39:42;2.27;;;1.10;;
18200;SDS011;9226;47.858;9.594;2023-03-22T16:42:12;1.33;;;1.03;;
18200;SDS011;9226;47.858;9.594;2023-03-22T16:44:40;1.23;;;1.00;;
18200;SDS011;9226;47.858;9.594;2023-03-22T16:47:10;1.37;;;1.10;;
18200;SDS011;9226;47.858;9.594;2023-03-22T16:49:45;2.70;;;1.37;;
18200;SDS011;9226;47.858;9.594;2023-03-22T16:52:12;1.10;;;1.00;;